createdAt,value
2017-09-03T00:00:39.878Z,13.3
2017-09-03T00:01:41.291Z,13.4
2017-09-03T00:02:42.654Z,13.3
2017-09-03T00:03:44.040Z,13.3
2017-09-03T00:04:45.428Z,13.2
2017-09-03T00:05:46.825Z,13.3
2017-09-03T00:06:48.212Z,13.3
2017-09-03T00:07:49.605Z,13.2
2017-09-03T00:08:51.010Z,13.2
2017-09-03T00:09:52.397Z,13.1
2017-09-03T00:10:53.788Z,13.2
2017-09-03T00:11:55.175Z,13.2
2017-09-03T00:12:56.565Z,13.2
2017-09-03T00:13:57.956Z,13.2
2017-09-03T00:14:59.346Z,13.2
2017-09-03T00:16:00.732Z,13.1
2017-09-03T00:17:02.121Z,13.1
2017-09-03T00:18:03.513Z,13.0
2017-09-03T00:19:04.903Z,13.1
2017-09-03T00:20:06.293Z,13.1
2017-09-03T00:21:07.695Z,13.0
2017-09-03T00:22:09.083Z,12.9
2017-09-03T00:23:10.475Z,12.9
2017-09-03T00:24:11.864Z,12.9
2017-09-03T00:25:13.254Z,12.8
2017-09-03T00:26:14.644Z,13.0
2017-09-03T00:27:16.032Z,12.9
2017-09-03T00:28:17.422Z,12.8
2017-09-03T00:29:18.811Z,12.7
2017-09-03T00:30:20.199Z,12.7
2017-09-03T00:31:21.587Z,12.7
2017-09-03T00:32:22.974Z,12.6
2017-09-03T00:33:24.365Z,12.6
2017-09-03T00:34:25.755Z,12.6
2017-09-03T00:35:27.143Z,12.6
2017-09-03T00:36:28.537Z,12.6
2017-09-03T00:37:29.927Z,12.5
2017-09-03T00:38:31.318Z,12.7
2017-09-03T00:39:32.706Z,12.6
2017-09-03T00:40:34.099Z,12.6
2017-09-03T00:41:35.481Z,12.6
2017-09-03T00:42:36.870Z,12.6
2017-09-03T00:43:38.264Z,12.6
2017-09-03T00:44:39.651Z,12.6
2017-09-03T00:45:41.039Z,12.6
2017-09-03T00:46:42.426Z,12.6
2017-09-03T00:47:43.813Z,12.7
2017-09-03T00:48:45.201Z,12.6
2017-09-03T00:49:46.594Z,12.6
2017-09-03T00:50:47.984Z,12.6
2017-09-03T00:51:49.371Z,12.6
2017-09-03T00:52:50.757Z,12.7
2017-09-03T00:53:52.144Z,12.6
2017-09-03T00:54:53.534Z,12.7
2017-09-03T00:55:54.926Z,12.7
2017-09-03T00:56:56.316Z,12.7
2017-09-03T00:57:57.706Z,12.7
2017-09-03T00:58:59.091Z,12.6
2017-09-03T01:00:00.482Z,12.6
2017-09-03T01:01:01.873Z,12.6
2017-09-03T01:02:03.258Z,12.6
2017-09-03T01:03:04.651Z,12.5
2017-09-03T01:04:06.041Z,12.6
2017-09-03T01:05:07.434Z,12.4
2017-09-03T01:06:08.823Z,12.4
2017-09-03T01:07:10.207Z,12.4
2017-09-03T01:08:11.596Z,12.5
2017-09-03T01:09:12.986Z,12.4
2017-09-03T01:10:14.377Z,12.4
2017-09-03T01:11:15.766Z,12.4
2017-09-03T01:12:17.168Z,12.4
2017-09-03T01:13:18.556Z,12.4
2017-09-03T01:14:19.953Z,12.5
2017-09-03T01:15:21.334Z,12.3
2017-09-03T01:16:22.723Z,12.4
2017-09-03T01:17:24.112Z,12.3
2017-09-03T01:18:25.502Z,12.3
2017-09-03T01:19:26.896Z,12.4
2017-09-03T01:20:28.282Z,12.4
2017-09-03T01:21:29.670Z,12.4
2017-09-03T01:22:31.060Z,12.4
2017-09-03T01:23:32.448Z,12.4
2017-09-03T01:24:33.839Z,12.4
2017-09-03T01:25:35.234Z,12.4
2017-09-03T01:26:36.626Z,12.4
2017-09-03T01:27:38.014Z,12.3
2017-09-03T01:28:39.398Z,12.3
2017-09-03T01:29:40.789Z,12.3
2017-09-03T01:30:42.177Z,12.4
2017-09-03T01:31:43.567Z,12.4
2017-09-03T01:32:44.960Z,12.4
2017-09-03T01:33:46.389Z,12.4
2017-09-03T01:34:47.772Z,12.4
2017-09-03T01:35:49.161Z,12.4
2017-09-03T01:36:50.549Z,12.4
2017-09-03T01:37:51.943Z,12.4
2017-09-03T01:38:53.329Z,12.4
2017-09-03T01:39:54.720Z,12.4
2017-09-03T01:40:56.110Z,12.4
2017-09-03T01:41:57.499Z,12.4
2017-09-03T01:42:58.884Z,12.4
2017-09-03T01:44:00.271Z,12.4
2017-09-03T01:45:01.658Z,12.4
2017-09-03T01:46:03.049Z,12.3
2017-09-03T01:47:04.445Z,12.4
2017-09-03T01:48:05.831Z,12.3
2017-09-03T01:49:07.219Z,12.4
2017-09-03T01:50:08.609Z,12.3
2017-09-03T01:51:09.996Z,12.3
2017-09-03T01:52:11.386Z,12.3
2017-09-03T01:53:12.780Z,12.2
2017-09-03T01:54:14.168Z,12.3
2017-09-03T01:55:15.559Z,12.2
2017-09-03T01:56:16.947Z,12.3
2017-09-03T01:57:18.335Z,12.3
2017-09-03T01:58:19.721Z,12.2
2017-09-03T01:59:21.106Z,12.3
2017-09-03T02:00:22.498Z,12.3
2017-09-03T02:01:23.888Z,12.2
2017-09-03T02:02:25.284Z,12.2
2017-09-03T02:03:26.679Z,12.2
2017-09-03T02:04:28.077Z,12.2
2017-09-03T02:05:29.468Z,12.1
2017-09-03T02:06:30.856Z,12.0
2017-09-03T02:07:32.244Z,12.1
2017-09-03T02:08:33.638Z,12.1
2017-09-03T02:09:35.030Z,12.1
2017-09-03T02:10:36.420Z,12.2
2017-09-03T02:11:37.807Z,12.1
2017-09-03T02:12:39.197Z,12.1
2017-09-03T02:13:40.586Z,12.1
2017-09-03T02:14:41.975Z,12.1
2017-09-03T02:15:43.365Z,12.1
2017-09-03T02:16:44.758Z,12.1
2017-09-03T02:17:46.140Z,12.1
2017-09-03T02:18:47.530Z,12.1
2017-09-03T02:19:48.916Z,12.1
2017-09-03T02:20:50.305Z,12.0
2017-09-03T02:21:51.695Z,12.1
2017-09-03T02:22:53.083Z,12.1
2017-09-03T02:23:54.474Z,12.1
2017-09-03T02:24:55.862Z,12.0
2017-09-03T02:25:57.250Z,12.0
2017-09-03T02:26:58.637Z,12.0
2017-09-03T02:28:00.025Z,12.0
2017-09-03T02:29:01.419Z,12.0
2017-09-03T02:30:02.808Z,12.0
2017-09-03T02:31:04.197Z,12.0
2017-09-03T02:32:05.584Z,12.0
2017-09-03T02:33:06.974Z,11.9
2017-09-03T02:34:08.362Z,11.9
2017-09-03T02:35:09.752Z,11.9
2017-09-03T02:36:11.139Z,11.9
2017-09-03T02:37:12.533Z,12.0
2017-09-03T02:38:13.920Z,12.0
2017-09-03T02:39:15.308Z,11.9
2017-09-03T02:40:16.709Z,11.9
2017-09-03T02:41:18.100Z,11.9
2017-09-03T02:42:19.488Z,11.8
2017-09-03T02:43:20.879Z,11.8
2017-09-03T02:44:22.268Z,11.7
2017-09-03T02:45:23.661Z,11.8
2017-09-03T02:46:25.047Z,11.7
2017-09-03T02:47:26.435Z,11.8
2017-09-03T02:48:27.820Z,11.8
2017-09-03T02:49:29.209Z,11.8
2017-09-03T02:50:30.600Z,11.7
2017-09-03T02:51:31.985Z,11.7
2017-09-03T02:52:33.374Z,11.7
2017-09-03T02:53:34.761Z,11.7
2017-09-03T02:54:36.151Z,11.7
2017-09-03T02:55:37.544Z,11.7
2017-09-03T02:56:38.932Z,11.7
2017-09-03T02:57:40.323Z,11.8
2017-09-03T02:58:41.712Z,11.8
2017-09-03T02:59:43.100Z,11.9
2017-09-03T03:00:44.488Z,11.8
2017-09-03T03:01:45.878Z,11.8
2017-09-03T03:02:47.265Z,11.8
2017-09-03T03:03:48.653Z,11.8
2017-09-03T03:04:50.042Z,11.8
2017-09-03T03:05:51.433Z,11.7
2017-09-03T03:06:52.820Z,11.8
2017-09-03T03:07:54.211Z,11.7
2017-09-03T03:08:55.593Z,11.7
2017-09-03T03:09:57.013Z,11.7
2017-09-03T03:10:58.374Z,11.7
2017-09-03T03:11:59.762Z,11.7
2017-09-03T03:13:01.153Z,11.7
2017-09-03T03:14:02.543Z,11.7
2017-09-03T03:15:03.932Z,11.7
2017-09-03T03:16:05.318Z,11.8
2017-09-03T03:17:06.707Z,11.8
2017-09-03T03:18:08.095Z,11.8
2017-09-03T03:19:09.486Z,11.9
2017-09-03T03:20:10.872Z,11.8
2017-09-03T03:21:12.297Z,11.8
2017-09-03T03:22:13.685Z,11.8
2017-09-03T03:23:15.074Z,11.8
2017-09-03T03:24:16.462Z,11.9
2017-09-03T03:25:17.851Z,11.9
2017-09-03T03:26:19.237Z,11.8
2017-09-03T03:27:20.628Z,11.8
2017-09-03T03:28:22.018Z,11.8
2017-09-03T03:29:23.406Z,11.7
2017-09-03T03:30:24.797Z,11.7
2017-09-03T03:31:26.183Z,11.7
2017-09-03T03:32:27.573Z,11.7
2017-09-03T03:33:28.964Z,11.7
2017-09-03T03:34:30.354Z,11.7
2017-09-03T03:35:31.741Z,11.7
2017-09-03T03:36:33.130Z,11.7
2017-09-03T03:37:34.519Z,11.7
2017-09-03T03:38:35.907Z,11.8
2017-09-03T03:39:37.296Z,11.7
2017-09-03T03:40:38.684Z,11.8
2017-09-03T03:41:40.070Z,11.7
2017-09-03T03:42:41.461Z,11.8
2017-09-03T03:43:42.847Z,11.7
2017-09-03T03:44:44.238Z,11.7
2017-09-03T03:45:45.625Z,11.6
2017-09-03T03:46:47.022Z,11.7
2017-09-03T03:47:48.419Z,11.6
2017-09-03T03:48:49.801Z,11.6
2017-09-03T03:49:51.193Z,11.7
2017-09-03T03:50:52.580Z,11.5
2017-09-03T03:51:53.968Z,11.6
2017-09-03T03:52:55.358Z,11.5
2017-09-03T03:53:56.746Z,11.6
2017-09-03T03:54:58.136Z,11.6
2017-09-03T03:55:59.528Z,11.6
2017-09-03T03:57:00.991Z,11.6
2017-09-03T03:58:02.379Z,11.6
2017-09-03T03:59:03.771Z,11.6
2017-09-03T04:00:05.158Z,11.7
2017-09-03T04:01:06.546Z,11.7
2017-09-03T04:02:07.939Z,11.6
2017-09-03T04:03:09.328Z,11.7
2017-09-03T04:04:10.729Z,11.7
2017-09-03T04:05:12.117Z,11.7
2017-09-03T04:06:13.504Z,11.7
2017-09-03T04:07:14.894Z,11.7
2017-09-03T04:08:16.282Z,11.7
2017-09-03T04:09:17.671Z,11.7
2017-09-03T04:10:19.066Z,11.7
2017-09-03T04:11:20.449Z,11.7
2017-09-03T04:12:21.835Z,11.7
2017-09-03T04:13:23.226Z,11.8
2017-09-03T04:14:24.614Z,11.7
2017-09-03T04:15:26.001Z,11.8
2017-09-03T04:16:27.390Z,11.7
2017-09-03T04:17:28.780Z,11.6
2017-09-03T04:18:30.170Z,11.6
2017-09-03T04:19:31.554Z,11.7
2017-09-03T04:20:32.940Z,11.6
2017-09-03T04:21:34.327Z,11.7
2017-09-03T04:22:35.716Z,11.6
2017-09-03T04:23:37.107Z,11.7
2017-09-03T04:24:38.497Z,11.6
2017-09-03T04:25:39.887Z,11.6
2017-09-03T04:26:41.275Z,11.6
2017-09-03T04:27:42.663Z,11.6
2017-09-03T04:28:44.052Z,11.7
2017-09-03T04:29:45.439Z,11.6
2017-09-03T04:30:46.832Z,11.6
2017-09-03T04:31:48.221Z,11.7
2017-09-03T04:32:49.613Z,11.6
2017-09-03T04:33:51.002Z,11.6
2017-09-03T04:34:52.389Z,11.6
2017-09-03T04:35:53.775Z,11.5
2017-09-03T04:36:55.165Z,11.6
2017-09-03T04:37:56.573Z,11.5
2017-09-03T04:38:57.968Z,11.6
2017-09-03T04:39:59.377Z,11.6
2017-09-03T04:41:00.844Z,11.6
2017-09-03T04:42:02.222Z,11.6
2017-09-03T04:43:03.620Z,11.6
2017-09-03T04:44:05.006Z,11.5
2017-09-03T04:45:06.395Z,11.6
2017-09-03T04:46:07.786Z,11.5
2017-09-03T04:47:09.175Z,11.5
2017-09-03T04:48:10.581Z,11.5
2017-09-03T04:49:11.949Z,11.4
2017-09-03T04:50:13.339Z,11.4
2017-09-03T04:51:14.731Z,11.4
2017-09-03T04:52:16.122Z,11.4
2017-09-03T04:53:17.509Z,11.4
2017-09-03T04:54:18.899Z,11.4
2017-09-03T04:55:20.288Z,11.3
2017-09-03T04:56:21.675Z,11.3
2017-09-03T04:57:23.064Z,11.3
2017-09-03T04:58:24.453Z,11.3
2017-09-03T04:59:25.847Z,11.3
2017-09-03T05:00:27.236Z,11.4
2017-09-03T05:01:28.630Z,11.4
2017-09-03T05:02:30.020Z,11.4
2017-09-03T05:03:31.411Z,11.3
2017-09-03T05:04:32.801Z,11.4
2017-09-03T05:05:34.192Z,11.4
2017-09-03T05:06:35.584Z,11.4
2017-09-03T05:07:36.976Z,11.3
2017-09-03T05:08:38.406Z,11.3
2017-09-03T05:09:39.795Z,11.3
2017-09-03T05:10:41.185Z,11.3
2017-09-03T05:11:42.577Z,11.3
2017-09-03T05:12:43.968Z,11.3
2017-09-03T05:13:45.362Z,11.3
2017-09-03T05:14:46.755Z,11.3
2017-09-03T05:15:48.151Z,11.3
2017-09-03T05:16:49.540Z,11.3
2017-09-03T05:17:50.931Z,11.3
2017-09-03T05:18:52.325Z,11.3
2017-09-03T05:19:53.715Z,11.3
2017-09-03T05:20:55.107Z,11.3
2017-09-03T05:21:56.500Z,11.3
2017-09-03T05:22:57.894Z,11.4
2017-09-03T05:23:59.286Z,11.3
2017-09-03T05:25:00.675Z,11.3
2017-09-03T05:26:02.068Z,11.3
2017-09-03T05:27:03.459Z,11.3
2017-09-03T05:28:04.852Z,11.3
2017-09-03T05:29:06.246Z,11.3
2017-09-03T05:30:07.643Z,11.3
2017-09-03T05:31:09.041Z,11.4
2017-09-03T05:32:10.434Z,11.5
2017-09-03T05:33:11.822Z,11.5
2017-09-03T05:34:13.213Z,11.5
2017-09-03T05:35:14.606Z,11.6
2017-09-03T05:36:16.000Z,11.7
2017-09-03T05:37:17.393Z,11.7
2017-09-03T05:38:18.783Z,11.6
2017-09-03T05:39:20.172Z,11.7
2017-09-03T05:40:21.564Z,11.7
2017-09-03T05:41:22.955Z,11.7
2017-09-03T05:42:24.345Z,11.6
2017-09-03T05:43:25.739Z,11.6
2017-09-03T05:44:27.131Z,11.6
2017-09-03T05:45:28.522Z,11.6
2017-09-03T05:46:29.912Z,11.7
2017-09-03T05:47:31.305Z,11.7
2017-09-03T05:48:32.698Z,11.7
2017-09-03T05:49:34.096Z,11.7
2017-09-03T05:50:35.484Z,11.7
2017-09-03T05:51:36.878Z,11.8
2017-09-03T05:52:38.270Z,11.8
2017-09-03T05:53:39.660Z,11.9
2017-09-03T05:54:41.052Z,11.9
2017-09-03T05:55:42.444Z,11.9
2017-09-03T05:56:43.835Z,12.0
2017-09-03T05:57:45.228Z,12.0
2017-09-03T05:58:46.621Z,12.0
2017-09-03T05:59:48.013Z,12.0
2017-09-03T06:00:49.403Z,12.0
2017-09-03T06:01:50.798Z,12.0
2017-09-03T06:02:52.188Z,12.1
2017-09-03T06:03:53.580Z,12.1
2017-09-03T06:04:54.975Z,12.1
2017-09-03T06:05:56.369Z,12.1
2017-09-03T06:06:57.758Z,12.1
2017-09-03T06:07:59.149Z,12.1
2017-09-03T06:09:00.540Z,12.2
2017-09-03T06:10:01.943Z,12.2
2017-09-03T06:11:03.334Z,12.3
2017-09-03T06:12:04.730Z,12.3
2017-09-03T06:13:06.125Z,12.3
2017-09-03T06:14:07.555Z,12.3
2017-09-03T06:15:08.949Z,12.4
2017-09-03T06:16:10.344Z,12.4
2017-09-03T06:17:11.735Z,12.5
2017-09-03T06:18:13.235Z,12.5
2017-09-03T06:19:14.622Z,12.5
2017-09-03T06:20:16.087Z,12.5
2017-09-03T06:21:17.485Z,12.6
2017-09-03T06:22:18.879Z,12.6
2017-09-03T06:23:20.273Z,12.6
2017-09-03T06:24:21.684Z,12.7
2017-09-03T06:25:23.075Z,12.7
2017-09-03T06:26:24.469Z,12.7
2017-09-03T06:27:25.867Z,12.7
2017-09-03T06:28:28.410Z,12.7
2017-09-03T06:29:29.804Z,12.7
2017-09-03T06:30:31.197Z,12.8
2017-09-03T06:31:32.591Z,12.7
2017-09-03T06:32:33.990Z,12.8
2017-09-03T06:33:35.384Z,12.8
2017-09-03T06:34:36.779Z,12.9
2017-09-03T06:35:39.325Z,12.9
2017-09-03T06:36:40.082Z,12.9
2017-09-03T06:37:41.484Z,13.0
2017-09-03T06:38:42.884Z,12.9
2017-09-03T06:39:44.280Z,12.9
2017-09-03T06:40:45.673Z,13.0
2017-09-03T06:41:47.066Z,12.9
2017-09-03T06:42:49.591Z,13.1
2017-09-03T06:43:50.983Z,13.1
2017-09-03T06:44:52.376Z,13.1
2017-09-03T06:45:53.770Z,13.1
2017-09-03T06:46:55.164Z,13.2
2017-09-03T06:47:56.566Z,13.2
2017-09-03T06:48:57.961Z,13.2
2017-09-03T06:49:59.402Z,13.2
2017-09-03T06:51:00.888Z,13.3
2017-09-03T06:52:02.279Z,13.4
2017-09-03T06:53:03.675Z,13.3
2017-09-03T06:54:05.071Z,13.3
2017-09-03T06:55:06.477Z,13.4
2017-09-03T06:56:08.434Z,13.4
2017-09-03T06:57:10.434Z,13.4
2017-09-03T06:58:11.826Z,13.5
2017-09-03T06:59:13.220Z,13.5
2017-09-03T07:00:14.617Z,13.5
2017-09-03T07:01:16.010Z,13.6
2017-09-03T07:02:17.409Z,13.6
2017-09-03T07:03:19.368Z,13.6
2017-09-03T07:04:20.160Z,13.7
2017-09-03T07:05:21.563Z,13.7
2017-09-03T07:06:22.978Z,13.8
2017-09-03T07:07:24.370Z,13.8
2017-09-03T07:08:25.762Z,13.9
2017-09-03T07:09:27.163Z,13.9
2017-09-03T07:10:28.566Z,14.0
2017-09-03T07:11:29.955Z,14.0
2017-09-03T07:12:31.339Z,14.2
2017-09-03T07:13:32.743Z,14.2
2017-09-03T07:14:34.136Z,14.2
2017-09-03T07:15:35.529Z,14.2
2017-09-03T07:16:36.925Z,14.2
2017-09-03T07:17:39.551Z,14.4
2017-09-03T07:18:40.942Z,14.4
2017-09-03T07:19:42.341Z,14.5
2017-09-03T07:20:43.729Z,14.5
2017-09-03T07:21:45.233Z,14.6
2017-09-03T07:22:46.543Z,14.7
2017-09-03T07:23:47.942Z,14.7
2017-09-03T07:24:50.558Z,14.8
2017-09-03T07:25:51.950Z,14.8
2017-09-03T07:26:53.347Z,15.0
2017-09-03T07:27:54.741Z,14.9
2017-09-03T07:28:56.133Z,15.1
2017-09-03T07:29:57.527Z,15.1
2017-09-03T07:30:58.927Z,15.1
2017-09-03T07:32:00.325Z,15.1
2017-09-03T07:33:01.775Z,15.1
2017-09-03T07:34:03.183Z,15.2
2017-09-03T07:35:04.578Z,15.2
2017-09-03T07:36:05.973Z,15.3
2017-09-03T07:37:07.368Z,15.3
2017-09-03T07:38:08.769Z,15.5
2017-09-03T07:39:10.716Z,15.4
2017-09-03T07:40:12.113Z,15.4
2017-09-03T07:41:13.503Z,15.5
2017-09-03T07:42:14.896Z,15.6
2017-09-03T07:43:16.291Z,15.6
2017-09-03T07:44:17.685Z,15.6
2017-09-03T07:45:19.678Z,15.7
2017-09-03T07:46:21.076Z,15.8
2017-09-03T07:47:22.471Z,15.8
2017-09-03T07:48:23.863Z,15.8
2017-09-03T07:49:25.257Z,15.9
2017-09-03T07:50:26.652Z,15.9
2017-09-03T07:51:28.080Z,16.0
2017-09-03T07:52:29.488Z,16.1
2017-09-03T07:53:30.884Z,16.1
2017-09-03T07:54:32.278Z,16.1
2017-09-03T07:55:33.671Z,16.1
2017-09-03T07:56:35.061Z,16.2
2017-09-03T07:57:36.465Z,16.3
2017-09-03T07:58:37.864Z,16.3
2017-09-03T07:59:40.763Z,16.4
2017-09-03T08:00:42.878Z,16.5
2017-09-03T08:01:44.113Z,16.5
2017-09-03T08:02:45.513Z,16.6
2017-09-03T08:03:46.910Z,16.6
2017-09-03T08:04:48.395Z,16.6
2017-09-03T08:05:49.792Z,16.8
2017-09-03T08:06:53.018Z,16.8
2017-09-03T08:07:55.554Z,16.8
2017-09-03T08:08:56.689Z,17.0
2017-09-03T08:09:58.081Z,17.0
2017-09-03T08:10:59.473Z,17.0
2017-09-03T08:12:00.874Z,17.0
2017-09-03T08:13:02.272Z,17.0
2017-09-03T08:14:05.153Z,17.1
2017-09-03T08:15:06.547Z,17.2
2017-09-03T08:16:07.939Z,17.1
2017-09-03T08:17:09.335Z,17.2
2017-09-03T08:18:10.733Z,17.4
2017-09-03T08:19:12.132Z,17.4
2017-09-03T08:20:13.526Z,17.4
2017-09-03T08:21:15.599Z,17.7
2017-09-03T08:22:16.991Z,17.6
2017-09-03T08:23:18.388Z,17.8
2017-09-03T08:24:19.787Z,17.9
2017-09-03T08:25:21.184Z,18.0
2017-09-03T08:26:23.335Z,17.9
2017-09-03T08:27:24.897Z,17.9
2017-09-03T08:28:26.295Z,18.0
2017-09-03T08:29:27.708Z,17.9
2017-09-03T08:30:29.106Z,18.2
2017-09-03T08:31:30.506Z,18.2
2017-09-03T08:32:32.515Z,18.3
2017-09-03T08:33:33.964Z,18.3
2017-09-03T08:34:35.361Z,18.5
2017-09-03T08:35:37.978Z,18.5
2017-09-03T08:36:38.678Z,18.6
2017-09-03T08:37:40.078Z,18.7
2017-09-03T08:38:41.471Z,18.7
2017-09-03T08:39:42.867Z,18.9
2017-09-03T08:40:44.262Z,19.0
2017-09-03T08:41:46.287Z,19.0
2017-09-03T08:42:48.165Z,19.1
2017-09-03T08:43:49.563Z,19.1
2017-09-03T08:44:50.958Z,19.1
2017-09-03T08:45:52.358Z,19.1
2017-09-03T08:46:53.752Z,19.2
2017-09-03T08:47:55.153Z,19.3
2017-09-03T08:48:57.175Z,19.4
2017-09-03T08:49:58.574Z,19.4
2017-09-03T08:50:59.972Z,19.5
2017-09-03T08:52:01.367Z,19.5
2017-09-03T08:53:02.767Z,19.5
2017-09-03T08:54:04.164Z,19.5
2017-09-03T08:55:05.562Z,19.6
2017-09-03T08:56:07.121Z,19.7
2017-09-03T08:57:08.522Z,19.7
2017-09-03T08:58:09.919Z,20.0
2017-09-03T08:59:11.316Z,20.5
2017-09-03T09:00:12.739Z,20.9
2017-09-03T09:01:14.116Z,21.3
2017-09-03T09:02:15.511Z,21.8
2017-09-03T09:03:18.043Z,22.0
2017-09-03T09:04:19.437Z,22.3
2017-09-03T09:05:20.837Z,22.7
2017-09-03T09:06:22.231Z,22.9
2017-09-03T09:07:25.105Z,23.1
2017-09-03T09:08:26.504Z,23.5
2017-09-03T09:09:27.904Z,23.7
2017-09-03T09:10:29.312Z,23.9
2017-09-03T09:11:30.723Z,24.2
2017-09-03T09:12:32.122Z,24.2
2017-09-03T09:13:33.520Z,24.3
2017-09-03T09:14:35.600Z,24.4
2017-09-03T09:15:36.998Z,24.3
2017-09-03T09:16:38.399Z,24.6
2017-09-03T09:17:39.795Z,24.4
2017-09-03T09:18:41.197Z,24.4
2017-09-03T09:19:42.594Z,24.5
2017-09-03T09:20:43.990Z,24.4
2017-09-03T09:21:47.493Z,24.4
2017-09-03T09:22:48.134Z,24.5
2017-09-03T09:23:49.533Z,24.5
2017-09-03T09:24:50.947Z,24.3
2017-09-03T09:25:52.349Z,24.2
2017-09-03T09:26:53.748Z,24.2
2017-09-03T09:27:55.277Z,24.3
2017-09-03T09:28:56.669Z,24.3
2017-09-03T09:29:58.064Z,24.3
2017-09-03T09:30:59.461Z,24.3
2017-09-03T09:32:00.862Z,24.3
2017-09-03T09:33:02.260Z,24.0
2017-09-03T09:34:03.661Z,24.1
2017-09-03T09:35:06.555Z,24.1
2017-09-03T09:36:08.640Z,23.9
2017-09-03T09:37:10.038Z,23.8
2017-09-03T09:38:11.437Z,23.8
2017-09-03T09:39:12.837Z,24.1
2017-09-03T09:40:14.301Z,24.2
2017-09-03T09:41:15.707Z,24.3
2017-09-03T09:42:17.107Z,24.5
2017-09-03T09:43:18.506Z,24.5
2017-09-03T09:44:19.953Z,24.5
2017-09-03T09:45:21.351Z,24.5
2017-09-03T09:46:22.753Z,24.6
2017-09-03T09:47:24.150Z,24.7
2017-09-03T09:48:25.558Z,24.7
2017-09-03T09:49:26.956Z,24.8
2017-09-03T09:50:28.366Z,24.8
2017-09-03T09:51:29.758Z,24.6
2017-09-03T09:52:31.150Z,24.7
2017-09-03T09:53:32.552Z,24.6
2017-09-03T09:54:33.959Z,24.6
2017-09-03T09:55:35.502Z,24.6
2017-09-03T09:56:37.062Z,24.7
2017-09-03T09:57:38.465Z,24.7
2017-09-03T09:58:39.865Z,24.7
2017-09-03T09:59:41.268Z,24.7
2017-09-03T10:00:42.722Z,24.8
2017-09-03T10:01:44.104Z,24.8
2017-09-03T10:02:45.506Z,25.0
2017-09-03T10:03:46.955Z,25.0
2017-09-03T10:04:48.441Z,25.1
2017-09-03T10:05:49.844Z,25.1
2017-09-03T10:06:51.247Z,25.1
2017-09-03T10:07:52.654Z,25.1
2017-09-03T10:08:54.048Z,25.1
2017-09-03T10:09:55.693Z,24.8
2017-09-03T10:10:57.078Z,24.7
2017-09-03T10:11:58.477Z,24.7
2017-09-03T10:12:59.878Z,24.6
2017-09-03T10:14:01.282Z,24.6
2017-09-03T10:15:02.732Z,24.7
2017-09-03T10:16:04.244Z,24.8
2017-09-03T10:17:05.875Z,24.9
2017-09-03T10:18:07.298Z,25.0
2017-09-03T10:19:08.700Z,25.1
2017-09-03T10:20:10.256Z,25.3
2017-09-03T10:21:11.672Z,25.4
2017-09-03T10:22:13.074Z,25.6
2017-09-03T10:23:14.474Z,25.6
2017-09-03T10:24:15.880Z,25.6
2017-09-03T10:25:17.278Z,25.7
2017-09-03T10:26:18.678Z,25.8
2017-09-03T10:27:20.078Z,25.9
2017-09-03T10:28:21.607Z,25.9
2017-09-03T10:29:23.130Z,25.8
2017-09-03T10:30:24.527Z,25.7
2017-09-03T10:31:26.127Z,25.7
2017-09-03T10:32:27.528Z,25.8
2017-09-03T10:33:28.937Z,26.0
2017-09-03T10:34:30.334Z,25.9
2017-09-03T10:35:31.766Z,26.0
2017-09-03T10:36:33.241Z,26.1
2017-09-03T10:37:34.912Z,26.3
2017-09-03T10:38:36.336Z,26.5
2017-09-03T10:39:37.737Z,26.7
2017-09-03T10:40:39.319Z,26.7
2017-09-03T10:41:40.801Z,26.8
2017-09-03T10:42:42.515Z,26.5
2017-09-03T10:43:44.158Z,26.3
2017-09-03T10:44:45.680Z,26.3
2017-09-03T10:45:47.082Z,26.5
2017-09-03T10:46:48.584Z,26.7
2017-09-03T10:47:49.987Z,27.0
2017-09-03T10:48:51.547Z,27.2
2017-09-03T10:49:52.951Z,27.4
2017-09-03T10:50:54.357Z,27.5
2017-09-03T10:51:55.775Z,27.6
2017-09-03T10:52:58.723Z,27.8
2017-09-03T10:54:00.343Z,27.9
2017-09-03T10:55:02.293Z,27.8
2017-09-03T10:56:04.185Z,27.8
2017-09-03T10:57:08.487Z,27.8
2017-09-03T10:58:10.306Z,27.9
2017-09-03T10:59:12.236Z,27.9
2017-09-03T11:00:14.215Z,27.9
2017-09-03T11:01:16.342Z,28.0
2017-09-03T11:02:18.152Z,28.1
2017-09-03T11:03:20.168Z,28.3
2017-09-03T11:04:24.407Z,28.0
2017-09-03T11:05:29.536Z,27.8
2017-09-03T11:06:30.270Z,27.6
2017-09-03T11:07:32.408Z,27.5
2017-09-03T11:08:34.502Z,27.5
2017-09-03T11:09:36.623Z,27.8
2017-09-03T11:10:38.783Z,27.9
2017-09-03T11:11:41.062Z,28.0
2017-09-03T11:12:47.754Z,27.9
2017-09-03T11:13:50.539Z,28.1
2017-09-03T11:14:51.823Z,28.2
2017-09-03T11:15:53.843Z,28.3
2017-09-03T11:16:55.945Z,28.2
2017-09-03T11:17:57.778Z,28.2
2017-09-03T11:18:59.871Z,28.0
2017-09-03T11:20:01.841Z,27.9
2017-09-03T11:21:07.879Z,27.9
2017-09-03T11:22:09.917Z,27.6
2017-09-03T11:23:11.970Z,28.0
2017-09-03T11:24:13.994Z,27.9
2017-09-03T11:25:16.672Z,28.0
2017-09-03T11:26:18.712Z,28.0
2017-09-03T11:27:21.424Z,27.8
2017-09-03T11:28:24.202Z,27.9
2017-09-03T11:29:26.846Z,27.5
2017-09-03T11:30:28.777Z,27.3
2017-09-03T11:31:30.857Z,27.5
2017-09-03T11:32:32.973Z,27.4
2017-09-03T11:33:34.905Z,27.8
2017-09-03T11:34:36.964Z,28.0
2017-09-03T11:35:40.172Z,27.9
2017-09-03T11:36:42.788Z,27.5
2017-09-03T11:37:44.203Z,27.1
2017-09-03T11:38:45.607Z,27.1
2017-09-03T11:39:47.009Z,27.0
2017-09-03T11:40:48.416Z,27.0
2017-09-03T11:41:49.824Z,26.8
2017-09-03T11:42:51.763Z,26.7
2017-09-03T11:43:53.740Z,26.5
2017-09-03T11:44:55.117Z,26.3
2017-09-03T11:45:56.694Z,26.2
2017-09-03T11:46:58.097Z,26.1
2017-09-03T11:47:59.516Z,26.1
2017-09-03T11:49:00.921Z,25.9
2017-09-03T11:50:02.854Z,25.9
2017-09-03T11:51:04.253Z,25.8
2017-09-03T11:52:05.689Z,25.8
2017-09-03T11:53:07.112Z,25.8
2017-09-03T11:54:08.514Z,25.6
2017-09-03T11:55:09.918Z,25.4
2017-09-03T11:56:11.325Z,25.3
2017-09-03T11:57:12.732Z,25.4
2017-09-03T11:58:14.133Z,25.3
2017-09-03T11:59:15.535Z,25.2
2017-09-03T12:00:16.930Z,25.0
2017-09-03T12:01:18.334Z,25.0
2017-09-03T12:02:19.738Z,24.9
2017-09-03T12:03:21.140Z,24.8
2017-09-03T12:04:23.702Z,24.7
2017-09-03T12:05:25.104Z,24.7
2017-09-03T12:06:26.507Z,24.6
2017-09-03T12:07:27.909Z,24.6
2017-09-03T12:08:29.313Z,24.6
2017-09-03T12:09:30.717Z,24.5
2017-09-03T12:10:32.123Z,24.5
2017-09-03T12:11:35.742Z,24.4
2017-09-03T12:12:37.144Z,24.4
2017-09-03T12:13:38.545Z,24.3
2017-09-03T12:14:39.946Z,24.3
2017-09-03T12:15:41.567Z,24.2
2017-09-03T12:16:42.952Z,24.2
2017-09-03T12:17:44.355Z,24.2
2017-09-03T12:18:46.967Z,24.1
2017-09-03T12:19:48.371Z,24.1
2017-09-03T12:20:49.770Z,23.9
2017-09-03T12:21:51.202Z,23.9
2017-09-03T12:22:52.604Z,24.0
2017-09-03T12:23:54.008Z,23.8
2017-09-03T12:24:55.410Z,23.8
2017-09-03T12:25:58.020Z,23.8
2017-09-03T12:26:59.424Z,23.7
2017-09-03T12:28:00.824Z,23.7
2017-09-03T12:29:02.254Z,23.8
2017-09-03T12:30:03.699Z,23.8
2017-09-03T12:31:05.103Z,23.8
2017-09-03T12:32:06.512Z,23.7
2017-09-03T12:33:09.850Z,23.8
2017-09-03T12:34:11.249Z,23.8
2017-09-03T12:35:12.650Z,23.8
2017-09-03T12:36:14.053Z,23.8
2017-09-03T12:37:15.454Z,23.8
2017-09-03T12:38:16.860Z,23.7
2017-09-03T12:39:18.261Z,23.7
2017-09-03T12:40:20.939Z,23.7
2017-09-03T12:41:22.500Z,23.6
2017-09-03T12:42:23.901Z,23.5
2017-09-03T12:43:25.306Z,23.5
2017-09-03T12:44:26.703Z,23.5
2017-09-03T12:45:28.109Z,23.4
2017-09-03T12:46:29.515Z,23.5
2017-09-03T12:47:32.775Z,23.4
2017-09-03T12:48:34.182Z,23.5
2017-09-03T12:49:35.583Z,23.4
2017-09-03T12:50:36.986Z,23.5
2017-09-03T12:51:38.388Z,23.6
2017-09-03T12:52:39.792Z,23.5
2017-09-03T12:53:41.194Z,23.6
2017-09-03T12:54:43.816Z,23.7
2017-09-03T12:55:45.222Z,23.6
2017-09-03T12:56:46.621Z,23.7
2017-09-03T12:57:48.022Z,23.7
2017-09-03T12:58:49.424Z,23.8
2017-09-03T12:59:50.829Z,24.2
2017-09-03T13:00:52.232Z,24.2
2017-09-03T13:01:53.638Z,24.2
2017-09-03T13:02:55.037Z,24.2
2017-09-03T13:03:56.442Z,24.1
2017-09-03T13:04:57.840Z,24.1
2017-09-03T13:05:59.243Z,24.0
2017-09-03T13:07:00.646Z,24.0
2017-09-03T13:08:02.046Z,24.0
2017-09-03T13:09:03.449Z,24.0
2017-09-03T13:10:04.851Z,24.0
2017-09-03T13:11:06.290Z,24.1
2017-09-03T13:12:07.698Z,24.1
2017-09-03T13:13:09.106Z,24.1
2017-09-03T13:14:10.519Z,24.5
2017-09-03T13:15:12.541Z,24.8
2017-09-03T13:16:13.942Z,24.9
2017-09-03T13:17:15.343Z,25.2
2017-09-03T13:18:16.741Z,25.3
2017-09-03T13:19:18.148Z,25.2
2017-09-03T13:20:19.557Z,25.0
2017-09-03T13:21:20.952Z,25.0
2017-09-03T13:22:22.987Z,24.9
2017-09-03T13:23:24.389Z,24.9
2017-09-03T13:24:25.795Z,24.7
2017-09-03T13:25:27.200Z,24.7
2017-09-03T13:26:28.601Z,24.7
2017-09-03T13:27:30.007Z,24.7
2017-09-03T13:28:31.414Z,24.7
2017-09-03T13:29:33.975Z,24.7
2017-09-03T13:30:35.376Z,24.7
2017-09-03T13:31:36.780Z,24.7
2017-09-03T13:32:38.182Z,24.6
2017-09-03T13:33:39.583Z,24.3
2017-09-03T13:34:40.987Z,24.4
2017-09-03T13:35:42.388Z,24.4
2017-09-03T13:36:44.342Z,24.3
2017-09-03T13:37:45.747Z,24.2
2017-09-03T13:38:47.152Z,24.5